Lubbock, TX (79424)

12:32 PM CDT on August 26, 2016 (GMT -0500)
Woodlank Park | | Change Station

Elev 3264 ft 33.52 °N, 101.92 °W | Updated 57 seconds ago

Mostly Cloudy
Mostly Cloudy
74.5 °F
Feels Like 75 °F
N
1.7
Wind Variable Wind from SE

Today
High -- | Low -- °F
--% Chance of Precip.
Yesterday
High -- | Low -- °F
Precip. -- in
Pressure 30.07 in
Visibility 10.0 miles
Clouds Few 1000 ft
Scattered Clouds 5000 ft
Scattered Clouds 12000 ft
Mostly Cloudy 26000 ft
Mostly Cloudy 30000 ft
Heat Index 75 °F
Dew Point 68 °F
Humidity 79%
Rainfall 0.09 in
Snow Depth Not available.
7:18 AM 8:20 PM
Waning Crescent, 33% visible
METAR KLBB 261653Z COR VRB03KT 10SM FEW010 SCT050 SCT120 BKN260 BKN300 22/17 A3019 RMK AO2 SLP183 T02170172
Pressure 30.07 in
Visibility 10.0 miles
Clouds Few 1000 ft
Scattered Clouds 5000 ft
Scattered Clouds 12000 ft
Mostly Cloudy 26000 ft
Mostly Cloudy 30000 ft
Heat Index 75 °F
Dew Point 68 °F
Humidity 79%
Rainfall 0.09 in
Snow Depth Not available.
7:18 AM 8:20 PM
Waning Crescent, 33% visible
METAR KLBB 261653Z COR VRB03KT 10SM FEW010 SCT050 SCT120 BKN260 BKN300 22/17 A3019 RMK AO2 SLP183 T02170172

10-Day Weather Forecast

Almanac

Astronomy

Aug. 26, 2016 Rise Set
Actual Time
Civil Twilight
Nautical Twilight
Astronomical Twilight
Moon
Length of Visible Light
Length of Day
Tomorrow will be .
, % of the Moon is Illuminated

Today's Extremes

State Highs State Lows

Community

WunderPhotos

Upload Photos

1,935,151 photos uploaded!

WunderBlog® & News

Nearby

Air Quality

  Air Quality AQ Index Pollutant
Not available.

Snow Depth

Station Depth Elevation

Earthquake Activity

City Distance Mag. Time & Date
Minimum magnitude displayed is 2.5.

Coastal Water Temperatures

Place Temperature

Stations

Nearby Weather Stations

Station Location Temp. Windchill Dew Point Humidity Wind Precip. Elev Updated Type
                   

Watches & Warnings

There are currently no watches in effect.